createdAt,value
2019-04-05T00:00:48.795Z,7.50
2019-04-05T00:04:12.778Z,7.50
2019-04-05T00:07:36.537Z,7.50
2019-04-05T00:11:00.887Z,7.40
2019-04-05T00:14:24.641Z,7.40
2019-04-05T00:17:48.516Z,7.30
2019-04-05T00:21:12.353Z,7.40
2019-04-05T00:24:36.154Z,7.40
2019-04-05T00:28:00.153Z,7.60
2019-04-05T00:31:23.968Z,7.70
2019-04-05T00:34:47.779Z,7.70
2019-04-05T00:38:11.672Z,7.70
2019-04-05T00:41:35.846Z,7.70
2019-04-05T00:44:59.766Z,7.70
2019-04-05T00:48:23.646Z,7.60
2019-04-05T00:51:47.370Z,7.70
2019-04-05T00:55:11.273Z,7.60
2019-04-05T00:58:35.149Z,7.70
2019-04-05T01:01:59.012Z,7.80
2019-04-05T01:05:22.804Z,7.80
2019-04-05T01:08:46.781Z,7.80
2019-04-05T01:12:10.846Z,7.80
2019-04-05T01:15:40.837Z,7.80
2019-04-05T01:19:00.316Z,7.80
2019-04-05T01:22:27.071Z,7.70
2019-04-05T01:25:54.026Z,7.80
2019-04-05T01:29:18.587Z,7.70
2019-04-05T01:32:42.387Z,7.70
2019-04-05T01:36:06.250Z,7.90
2019-04-05T01:39:30.214Z,7.90
2019-04-05T01:42:54.076Z,7.80
2019-04-05T01:46:18.429Z,7.50
2019-04-05T01:49:42.372Z,7.30
2019-04-05T01:53:06.186Z,7.20
2019-04-05T01:56:30.137Z,7.30
2019-04-05T01:59:54.561Z,7.30
2019-04-05T02:03:18.480Z,7.50
2019-04-05T02:06:43.076Z,7.80
2019-04-05T02:10:10.595Z,8.00
2019-04-05T02:13:34.355Z,8.00
2019-04-05T02:16:58.091Z,7.90
2019-04-05T02:20:22.960Z,7.90
2019-04-05T02:23:46.847Z,7.90
2019-04-05T02:27:10.594Z,7.80
2019-04-05T02:30:34.517Z,7.60
2019-04-05T02:33:58.292Z,7.60
2019-04-05T02:37:22.099Z,7.60
2019-04-05T02:40:46.967Z,7.60
2019-04-05T02:44:13.120Z,7.60
2019-04-05T02:47:39.255Z,7.60
2019-04-05T02:51:04.445Z,7.50
2019-04-05T02:54:28.988Z,7.50
2019-04-05T02:57:53.652Z,7.50
2019-04-05T03:01:17.932Z,7.40
2019-04-05T03:04:41.844Z,7.30
2019-04-05T03:08:06.832Z,7.30
2019-04-05T03:11:33.230Z,7.30
2019-04-05T03:14:58.070Z,7.40
2019-04-05T03:18:24.766Z,7.50
2019-04-05T03:21:51.849Z,7.60
2019-04-05T03:25:15.841Z,7.60
2019-04-05T03:28:41.896Z,7.60
2019-04-05T03:32:06.802Z,7.50
2019-04-05T03:35:30.874Z,7.50
2019-04-05T03:38:54.826Z,7.60
2019-04-05T03:42:18.953Z,7.60
2019-04-05T03:45:43.334Z,7.60
2019-04-05T03:49:07.222Z,7.70
2019-04-05T03:52:31.204Z,7.80
2019-04-05T03:55:55.806Z,7.80
2019-04-05T03:59:19.800Z,7.90
2019-04-05T04:02:43.741Z,7.90
2019-04-05T04:06:07.912Z,7.90
2019-04-05T04:09:31.940Z,7.80
2019-04-05T04:12:56.003Z,7.80
2019-04-05T04:16:20.004Z,7.80
2019-04-05T04:19:44.890Z,7.80
2019-04-05T04:23:10.092Z,7.80
2019-04-05T04:26:34.187Z,7.70
2019-04-05T04:30:00.321Z,7.70
2019-04-05T04:33:24.845Z,7.70
2019-04-05T04:36:48.779Z,7.70
2019-04-05T04:40:13.013Z,7.80
2019-04-05T04:43:37.059Z,7.80
2019-04-05T04:47:01.350Z,7.80
2019-04-05T04:50:25.544Z,7.80
2019-04-05T04:53:49.513Z,7.90
2019-04-05T04:57:13.728Z,8.10
2019-04-05T05:00:38.040Z,8.10
2019-04-05T05:04:02.296Z,8.00
2019-04-05T05:07:26.441Z,8.10
2019-04-05T05:10:50.992Z,8.10
2019-04-05T05:14:15.084Z,8.20
2019-04-05T05:17:39.198Z,8.30
2019-04-05T05:21:03.232Z,8.50
2019-04-05T05:24:27.018Z,8.60
2019-04-05T05:27:51.084Z,8.90
2019-04-05T05:31:15.268Z,9.20
2019-04-05T05:34:39.229Z,9.70
2019-04-05T05:38:03.824Z,10.40
2019-04-05T05:41:33.777Z,11.50
2019-04-05T05:44:57.569Z,13.30
2019-04-05T05:48:21.786Z,14.00
2019-04-05T05:51:47.098Z,15.10
2019-04-05T05:55:12.687Z,16.30
2019-04-05T05:58:36.625Z,16.60
2019-04-05T06:02:08.550Z,14.80
2019-04-05T06:05:44.031Z,12.20
2019-04-05T06:09:10.159Z,11.80
2019-04-05T06:12:33.956Z,10.90
2019-04-05T06:15:57.803Z,13.00
2019-04-05T06:19:21.705Z,16.60
2019-04-05T06:22:47.613Z,17.20
2019-04-05T06:26:10.954Z,18.30
2019-04-05T06:29:34.856Z,18.40
2019-04-05T06:32:58.748Z,20.10
2019-04-05T06:36:22.708Z,20.30
2019-04-05T06:39:46.576Z,20.50
2019-04-05T06:43:10.402Z,20.30
2019-04-05T06:46:34.246Z,20.10
2019-04-05T06:49:58.239Z,19.60
2019-04-05T06:53:22.150Z,20.70
2019-04-05T06:56:46.143Z,21.50
2019-04-05T07:00:10.317Z,22.00
2019-04-05T07:03:34.243Z,22.00
2019-04-05T07:06:58.025Z,21.40
2019-04-05T07:10:21.858Z,21.10
2019-04-05T07:13:45.699Z,21.80
2019-04-05T07:17:09.566Z,21.30
2019-04-05T07:20:33.359Z,22.30
2019-04-05T07:23:57.176Z,21.80
2019-04-05T07:27:20.932Z,22.60
2019-04-05T07:30:44.811Z,22.70
2019-04-05T07:34:08.669Z,23.60
2019-04-05T07:37:32.701Z,25.00
2019-04-05T07:40:56.445Z,25.10
2019-04-05T07:44:20.431Z,23.10
2019-04-05T07:47:44.308Z,22.60
2019-04-05T07:51:08.083Z,23.70
2019-04-05T07:54:32.113Z,22.80
2019-04-05T07:57:56.089Z,23.30
2019-04-05T08:01:20.043Z,24.30
2019-04-05T08:04:43.936Z,24.30
2019-04-05T08:08:10.699Z,25.80
2019-04-05T08:11:35.220Z,25.10
2019-04-05T08:14:59.151Z,25.20
2019-04-05T08:18:23.012Z,24.10
2019-04-05T08:21:46.823Z,23.70
2019-04-05T08:25:10.730Z,25.60
2019-04-05T08:28:34.523Z,25.10
2019-04-05T08:31:58.361Z,24.60
2019-04-05T08:35:22.165Z,23.80
2019-04-05T08:38:45.917Z,23.40
2019-04-05T08:42:10.941Z,24.10
2019-04-05T08:45:35.234Z,25.40
2019-04-05T08:49:09.965Z,24.60
2019-04-05T08:52:26.936Z,24.50
2019-04-05T08:55:50.157Z,23.40
2019-04-05T08:59:13.906Z,24.30
2019-04-05T09:02:39.794Z,25.50
2019-04-05T09:06:03.848Z,25.40
2019-04-05T09:09:27.696Z,25.70
2019-04-05T09:12:54.676Z,26.80
2019-04-05T09:16:18.488Z,27.00
2019-04-05T09:19:42.247Z,25.10
2019-04-05T09:23:06.119Z,24.70
2019-04-05T09:26:29.963Z,24.30
2019-04-05T09:29:53.773Z,23.90
2019-04-05T09:33:17.557Z,24.30
2019-04-05T09:36:41.305Z,24.10
2019-04-05T09:40:06.793Z,25.50
2019-04-05T09:43:30.591Z,26.80
2019-04-05T09:46:54.524Z,26.90
2019-04-05T09:50:19.068Z,26.30
2019-04-05T09:53:42.819Z,25.00
2019-04-05T09:57:06.732Z,25.50
2019-04-05T10:00:30.506Z,27.00
2019-04-05T10:03:54.396Z,25.00
2019-04-05T10:07:18.301Z,25.80
2019-04-05T10:10:42.161Z,25.30
2019-04-05T10:14:05.972Z,26.90
2019-04-05T10:17:30.338Z,27.50
2019-04-05T10:20:54.559Z,27.40
2019-04-05T10:24:18.269Z,28.30
2019-04-05T10:27:43.001Z,27.50
2019-04-05T10:31:06.775Z,27.20
2019-04-05T10:34:30.654Z,27.70
2019-04-05T10:37:54.437Z,28.40
2019-04-05T10:41:18.463Z,27.00
2019-04-05T10:44:42.201Z,27.30
2019-04-05T10:48:06.228Z,26.60
2019-04-05T10:51:30.076Z,27.30
2019-04-05T10:54:54.103Z,27.00
2019-04-05T10:58:17.999Z,25.00
2019-04-05T11:01:41.847Z,25.20
2019-04-05T11:05:08.468Z,25.00
2019-04-05T11:08:32.316Z,25.70
2019-04-05T11:11:56.180Z,25.10
2019-04-05T11:15:20.122Z,26.10
2019-04-05T11:18:45.205Z,28.10
2019-04-05T11:22:09.594Z,27.60
2019-04-05T11:25:33.454Z,28.10
2019-04-05T11:28:57.674Z,27.30
2019-04-05T11:32:21.650Z,26.30
2019-04-05T11:35:45.461Z,25.00
2019-04-05T11:39:10.032Z,24.80
2019-04-05T11:42:35.517Z,24.60
2019-04-05T11:46:00.188Z,25.00
2019-04-05T11:49:24.718Z,25.20
2019-04-05T11:52:48.674Z,25.60
2019-04-05T11:56:14.782Z,25.80
2019-04-05T11:59:38.024Z,25.50
2019-04-05T12:03:06.006Z,24.80
2019-04-05T12:06:29.813Z,25.70
2019-04-05T12:09:53.711Z,26.60
2019-04-05T12:13:17.504Z,24.90
2019-04-05T12:16:41.340Z,25.50
2019-04-05T12:20:07.468Z,24.90
2019-04-05T12:23:33.402Z,24.50
2019-04-05T12:26:59.918Z,25.40
2019-04-05T12:30:25.515Z,24.60
2019-04-05T12:33:51.586Z,24.10
2019-04-05T12:37:14.828Z,24.90
2019-04-05T12:40:40.773Z,23.40
2019-04-05T12:44:04.187Z,24.10
2019-04-05T12:47:28.014Z,24.30
2019-04-05T12:51:01.083Z,22.60
2019-04-05T12:54:17.469Z,22.80
2019-04-05T12:57:41.300Z,22.00
2019-04-05T13:01:08.203Z,23.20
2019-04-05T13:04:31.145Z,21.60
2019-04-05T13:07:55.027Z,21.10
2019-04-05T13:11:19.037Z,21.50
2019-04-05T13:14:42.913Z,21.40
2019-04-05T13:18:06.784Z,21.20
2019-04-05T13:21:32.952Z,22.30
2019-04-05T13:24:56.590Z,22.30
2019-04-05T13:28:20.352Z,21.20
2019-04-05T13:31:48.612Z,21.20
2019-04-05T13:35:12.494Z,21.50
2019-04-05T13:38:36.621Z,22.50
2019-04-05T13:42:02.472Z,22.10
2019-04-05T13:45:26.656Z,21.70
2019-04-05T13:48:50.487Z,20.90
2019-04-05T13:52:14.359Z,21.40
2019-04-05T13:55:38.542Z,21.60
2019-04-05T13:59:04.624Z,21.60
2019-04-05T14:02:28.409Z,21.50
2019-04-05T14:05:53.997Z,21.60
2019-04-05T14:09:17.855Z,21.70
2019-04-05T14:12:41.623Z,21.20
2019-04-05T14:16:06.277Z,20.70
2019-04-05T14:19:30.258Z,20.60
2019-04-05T14:22:58.114Z,21.00
2019-04-05T14:26:20.934Z,21.10
2019-04-05T14:29:47.543Z,21.10
2019-04-05T14:33:10.477Z,20.90
2019-04-05T14:36:34.294Z,20.70
2019-04-05T14:39:58.319Z,21.00
2019-04-05T14:43:22.284Z,20.70
2019-04-05T14:46:46.326Z,20.50
2019-04-05T14:50:11.966Z,20.40
2019-04-05T14:53:36.031Z,20.20
2019-04-05T14:57:04.769Z,20.20
2019-04-05T15:00:25.491Z,20.10
2019-04-05T15:03:50.121Z,20.20
2019-04-05T15:07:21.711Z,20.30
2019-04-05T15:10:45.480Z,20.30
2019-04-05T15:14:09.254Z,20.20
2019-04-05T15:17:47.231Z,19.80
2019-04-05T15:21:05.458Z,20.00
2019-04-05T15:24:27.123Z,20.10
2019-04-05T15:27:55.154Z,19.90
2019-04-05T15:31:16.503Z,19.80
2019-04-05T15:34:40.427Z,19.70
2019-04-05T15:38:04.518Z,19.50
2019-04-05T15:41:28.464Z,19.50
2019-04-05T15:44:52.344Z,19.60
2019-04-05T15:48:16.359Z,19.50
2019-04-05T15:51:40.499Z,19.30
2019-04-05T15:55:06.324Z,19.20
2019-04-05T15:58:31.600Z,19.00
2019-04-05T16:01:55.668Z,18.70
2019-04-05T16:05:21.166Z,18.40
2019-04-05T16:08:46.074Z,18.40
2019-04-05T16:12:10.093Z,18.30
2019-04-05T16:15:34.701Z,18.30
2019-04-05T16:18:59.264Z,18.20
2019-04-05T16:22:31.111Z,18.10
2019-04-05T16:25:49.058Z,18.00
2019-04-05T16:29:13.066Z,18.00
2019-04-05T16:32:37.452Z,17.80
2019-04-05T16:36:01.444Z,17.70
2019-04-05T16:39:25.447Z,17.50
2019-04-05T16:43:01.657Z,17.50
2019-04-05T16:46:15.385Z,17.40
2019-04-05T16:49:44.698Z,17.40
2019-04-05T16:53:11.912Z,17.40
2019-04-05T16:56:35.966Z,17.30
2019-04-05T17:00:00.594Z,17.30
2019-04-05T17:03:24.962Z,17.30
2019-04-05T17:06:48.853Z,17.20
2019-04-05T17:10:12.666Z,17.10
2019-04-05T17:13:36.562Z,17.00
2019-04-05T17:17:00.392Z,16.90
2019-04-05T17:20:24.276Z,16.70
2019-04-05T17:23:48.121Z,16.60
2019-04-05T17:27:12.053Z,16.40
2019-04-05T17:30:36.491Z,16.40
2019-04-05T17:34:00.529Z,16.40
2019-04-05T17:37:26.636Z,16.30
2019-04-05T17:40:49.993Z,16.30
2019-04-05T17:44:15.312Z,16.20
2019-04-05T17:47:39.178Z,16.10
2019-04-05T17:51:03.081Z,15.90
2019-04-05T17:54:28.016Z,15.70
2019-04-05T17:57:54.252Z,15.60
2019-04-05T18:01:18.313Z,15.50
2019-04-05T18:04:42.335Z,15.40
2019-04-05T18:08:08.105Z,15.20
2019-04-05T18:11:32.003Z,15.00
2019-04-05T18:14:55.814Z,14.90
2019-04-05T18:18:19.742Z,14.80
2019-04-05T18:21:43.554Z,14.70
2019-04-05T18:25:07.589Z,14.50
2019-04-05T18:28:32.211Z,14.40
2019-04-05T18:31:56.273Z,14.40
2019-04-05T18:35:20.152Z,14.30
2019-04-05T18:38:43.979Z,14.20
2019-04-05T18:42:07.966Z,14.10
2019-04-05T18:45:33.630Z,14.00
2019-04-05T18:48:57.919Z,13.90
2019-04-05T18:52:21.709Z,13.80
2019-04-05T18:55:45.586Z,13.80
2019-04-05T18:59:09.594Z,13.70
2019-04-05T19:02:33.495Z,13.60
2019-04-05T19:05:58.299Z,13.50
2019-04-05T19:09:22.827Z,13.50
2019-04-05T19:12:46.771Z,13.40
2019-04-05T19:16:11.263Z,13.40
2019-04-05T19:19:35.386Z,13.50
2019-04-05T19:22:59.227Z,13.30
2019-04-05T19:26:23.351Z,13.20
2019-04-05T19:29:47.236Z,13.20
2019-04-05T19:50:20.549Z,13.10
2019-04-05T19:53:44.521Z,13.10
2019-04-05T19:57:08.415Z,13.10
2019-04-05T20:00:32.301Z,13.20
2019-04-05T20:03:56.275Z,13.10
2019-04-05T20:07:23.104Z,13.10
2019-04-05T20:10:47.154Z,13.00
2019-04-05T20:14:11.057Z,13.00
2019-04-05T20:17:34.988Z,13.00
2019-04-05T20:20:58.718Z,12.90
2019-04-05T20:24:22.587Z,12.80
2019-04-05T20:27:46.929Z,12.80
2019-04-05T20:31:10.815Z,12.70
2019-04-05T20:34:35.616Z,12.60
2019-04-05T20:37:59.513Z,12.70
2019-04-05T20:41:23.248Z,12.60
2019-04-05T20:44:46.999Z,12.50
2019-04-05T20:48:10.804Z,12.50
2019-04-05T20:51:34.584Z,12.60
2019-04-05T20:54:58.473Z,12.90
2019-04-05T20:58:22.472Z,12.90
2019-04-05T21:01:46.334Z,12.80
2019-04-05T21:05:10.276Z,12.80
2019-04-05T21:08:34.079Z,12.70
2019-04-05T21:11:58.160Z,12.60
2019-04-05T21:15:22.091Z,12.60
2019-04-05T21:18:46.033Z,12.60
2019-04-05T21:22:09.904Z,12.50
2019-04-05T21:25:33.828Z,12.60
2019-04-05T21:28:57.928Z,12.60
2019-04-05T21:32:21.661Z,12.70
2019-04-05T21:35:46.221Z,12.60
2019-04-05T21:39:10.556Z,12.60
2019-04-05T21:42:34.311Z,12.50
2019-04-05T21:45:58.424Z,12.40
2019-04-05T21:49:22.296Z,12.40
2019-04-05T21:52:47.013Z,12.30
2019-04-05T21:56:10.906Z,12.30
2019-04-05T21:59:34.673Z,12.50
2019-04-05T22:02:58.797Z,12.30
2019-04-05T22:06:22.724Z,12.30
2019-04-05T22:09:46.919Z,12.30
2019-04-05T22:13:10.730Z,12.10
2019-04-05T22:16:34.554Z,11.90
2019-04-05T22:19:58.485Z,11.90
2019-04-05T22:23:22.340Z,11.80
2019-04-05T22:26:46.084Z,11.80
2019-04-05T22:30:10.903Z,11.80
2019-04-05T22:33:35.714Z,11.70
2019-04-05T22:37:00.438Z,11.70
2019-04-05T22:40:24.466Z,11.60
2019-04-05T22:43:48.267Z,11.60
2019-04-05T22:47:11.969Z,11.60
2019-04-05T22:50:36.999Z,11.60
2019-04-05T22:54:00.808Z,11.50
2019-04-05T22:57:24.724Z,11.50
2019-04-05T23:00:48.548Z,11.50
2019-04-05T23:04:12.351Z,11.40
2019-04-05T23:07:36.155Z,11.40
2019-04-05T23:10:59.911Z,11.10
2019-04-05T23:14:23.823Z,11.10
2019-04-05T23:17:47.714Z,11.10
2019-04-05T23:21:11.724Z,11.00
2019-04-05T23:24:35.783Z,11.10
2019-04-05T23:27:59.783Z,11.10
2019-04-05T23:31:23.797Z,11.00
2019-04-05T23:34:47.744Z,10.80
2019-04-05T23:38:11.511Z,10.80
2019-04-05T23:41:35.375Z,10.90
2019-04-05T23:44:59.360Z,10.90
2019-04-05T23:48:23.049Z,10.80
2019-04-05T23:51:46.911Z,10.70
2019-04-05T23:55:10.839Z,10.70
2019-04-05T23:58:43.844Z,10.70
